• Join FlightAware (Why Join?)
  • Login
  • US Flag 
07:37AM EDT


 

Airport Tracker/Info


-or-


 

Live Flight TrackerFlight Track Log ✈ KAP927 ✈ 03-Jul-2013 ✈ KALB - KOGS

Flight Track Log - Related Links

Times and Time Zones

All times are in EDT time to prevent confusion due to time zone crossing. See the KAP927 flight status page for this flight to view local times or setup timezone preferences in your user account.

Time Position Orientation Groundspeed Altitude Reporting Facility
EDT Latitude Longitude Course Direction KTS MPH feet Rate Location/Type
02:59PM 42.7253 -73.8392 242° Southwest 119 137 1,400  Level Boston Center
03:00PM 42.7564 -73.8567 338° Northwest 129 148 1,900 480 Climbing Boston Center
03:01PM 42.7853 -73.8828 326° Northwest 127 146 2,400 480 Climbing Boston Center
03:02PM 42.8203 -73.9119 329° Northwest 126 145 3,000 480 Climbing Boston Center
03:03PM 42.8511 -73.9356 331° Northwest 130 150 3,500 480 Climbing Boston Center
03:04PM 42.8800 -73.9589 329° Northwest 130 150 4,000 420 Climbing Boston Center
03:05PM 42.9089 -73.9850 326° Northwest 130 150 4,400 420 Climbing Boston Center
03:06PM 42.9419 -74.0114 330° Northwest 130 150 4,900 420 Climbing Boston Center
03:07PM 42.9747 -74.0406 327° Northwest 131 151 5,400 480 Climbing Boston Center
03:08PM 43.0036 -74.0583 336° Northwest 131 151 5,900 480 Climbing Boston Center
03:09PM 43.0347 -74.0847 328° Northwest 132 152 6,400 480 Climbing Boston Center
03:10PM 43.0656 -74.1111 328° Northwest 127 146 6,900 420 Climbing Boston Center
03:11PM 43.1025 -74.1433 328° Northwest 133 153 7,400 360 Climbing Boston Center
03:13PM 43.1581 -74.1850 331° Northwest 137 158 8,100 360 Climbing Boston Center
03:14PM 43.1869 -74.2086 329° Northwest 137 158 8,500 360 Climbing Boston Center
03:15PM 43.2242 -74.2381 330° Northwest 137 158 8,900 360 Climbing Boston Center
03:16PM 43.2528 -74.2617 329° Northwest 137 158 9,300 360 Climbing Boston Center
03:17PM 43.2897 -74.2942 327° Northwest 137 158 9,700 300 Climbing Boston Center
03:18PM 43.3208 -74.3181 331° Northwest 137 158 10,000 120 Climbing Boston Center
03:19PM 43.3617 -74.3564 326° Northwest 143 165 10,000  Level Boston Center
03:20PM 43.4028 -74.3892 330° Northwest 160 184 10,000 -60 Level Boston Center
03:21PM 43.4439 -74.4219 330° Northwest 165 190 9,900 -60 Descending Boston Center
03:22PM 43.4872 -74.4547 331° Northwest 165 190 9,900  Level Boston Center
03:23PM 43.5200 -74.4786 332° Northwest 165 190 10,000  Climbing Boston Center
03:24PM 43.5653 -74.5203 326° Northwest 165 190 10,000  Level Boston Center
03:25PM 43.6064 -74.5506 332° Northwest 165 190 10,000  Level Boston Center
03:26PM 43.6411 -74.5833 326° Northwest 165 190 10,000  Level Boston Center
03:27PM 43.6781 -74.6133 330° Northwest 160 184 10,000  Level Boston Center
03:28PM 43.7108 -74.6403 329° Northwest 160 184 10,000  Level Boston Center
03:29PM 43.7458 -74.6733 326° Northwest 160 184 10,000  Level Boston Center
03:30PM 43.7828 -74.7033 330° Northwest 160 184 10,000  Level Boston Center
03:31PM 43.8194 -74.7336 329° Northwest 160 184 10,000  Level Boston Center
03:32PM 43.8564 -74.7636 330° Northwest 160 184 10,000  Level Boston Center
03:33PM 43.9000 -74.7797 345° North 160 184 10,000  Level Boston Center
03:34PM 43.9392 -74.8014 338° Northwest 153 176 10,000  Level Boston Center
03:35PM 43.9783 -74.8203 341° North 148 170 10,000 -300 Level Boston Center
03:36PM 44.0236 -74.8394 343° North 154 177 9,400 -480 Descending Boston Center
03:37PM 44.0711 -74.8617 341° North 164 189 9,100 -540 Descending Boston Center
03:38PM 44.1208 -74.8839 342° North 175 201 8,400 -720 Descending Boston Center
03:39PM 44.1703 -74.9061 342° North 180 207 7,700 -660 Descending Boston Center
03:40PM 44.2197 -74.9342 338° Northwest 185 213 7,100 -540 Descending Boston Center
03:41PM 44.2672 -74.9594 339° North 185 213 6,700 -480 Descending Boston Center
03:42PM 44.3167 -74.9819 342° North 185 213 6,200 -480 Descending Boston Center
03:43PM 44.3661 -75.0044 342° North 185 213 5,800 -540 Descending Boston Center
03:44PM 44.4156 -75.0269 342° North 185 213 5,200 -600 Descending Boston Center
03:45PM 44.4653 -75.0436 347° North 185 213 4,700 -420 Descending Boston Center
03:46PM 44.5147 -75.0689 340° North 185 213 4,400 -240 Descending Boston Center
03:47PM 44.5581 -75.0856 345° North 174 200 4,300 -420 Descending Boston Center
03:48PM 44.6056 -75.1081 341° North 169 194 3,600 -540 Descending Boston Center
03:49PM 44.6547 -75.1367 338° Northwest 169 194 3,200 -240 Descending Boston Center
03:50PM 44.7103 -75.1656 340° North 169 194 3,200  Level Boston Center
03:51PM 44.7578 -75.1911 339° North 169 194 3,200  Level Boston Center
03:52PM 44.7947 -75.2103 340° North 169 194 3,200  Level Boston Center
03:54PM 44.7586 -75.2611 225° Southwest  Level FlightAware Approximate
04:01PM 44.6667 -75.4500 254° West  Level FlightAware Approximate
04:02PM 44.6819 -75.4655 254° West  Level Estimated
04:03PM 44.6819 -75.4655 254° West  Level Estimated
04:04PM 44.6819 -75.4655 254° West  Level Estimated
04:05PM 44.6819 -75.4655 254° West  Level Estimated
04:06PM 44.6819 -75.4655 254° West  Level Estimated
04:07PM 44.6819 -75.4655 254° West  Level Estimated
04:08PM 44.6819 -75.4655 254° West  Level Estimated
04:09PM 44.6819 -75.4655 254° West  Level Estimated
04:10PM 44.6819 -75.4655 254° West  Level Estimated
04:11PM 44.6819 -75.4655 254° West  Level Estimated
04:12PM 44.6819 -75.4655 254° West  Level Estimated
04:13PM 44.6819 -75.4655 254° West  Level Estimated
04:14PM 44.6819 -75.4655 254° West  Level Estimated